Time;durP1;ratioP1;P1;durP2;ratioP2;P2;SDS_P1;SDS_P2;PMS_P1;PMS_P2;Temp;Humidity;BMP_temperature;BMP_pressure;BME280_temperature;BME280_humidity;BME280_pressure;Samples;Min_cycle;Max_cycle;Signal;HPM_P1;HPM_P2
2023/12/31 00:01:05;;;;;;;15.95;12.80;;;;;;;29.79;56.23;101095.16;4947996;28;66965;-38
2023/12/31 00:03:36;;;;;;;14.25;12.57;;;;;;;29.75;57.10;101094.72;4977245;28;70450;-37
2023/12/31 00:06:06;;;;;;;16.92;12.88;;;;;;;29.90;56.55;101115.34;4964824;28;66296;-38
2023/12/31 00:08:36;;;;;;;17.60;13.55;;;;;;;29.93;57.44;101131.16;4977143;28;69941;-37
2023/12/31 00:11:06;;;;;;;14.57;12.77;;;;;;;30.00;57.53;101140.09;4968456;28;66260;-38
2023/12/31 00:13:37;;;;;;;22.40;13.77;;;;;;;30.00;56.93;101135.50;4956328;28;70421;-38
2023/12/31 00:16:11;;;;;;;23.58;13.73;;;;;;;29.50;59.26;101058.50;4961537;28;67356;-39
2023/12/31 00:18:42;;;;;;;18.90;14.00;;;;;;;29.98;57.38;101128.66;4953030;28;69986;-42
2023/12/31 00:21:12;;;;;;;15.93;14.27;;;;;;;30.09;57.67;101144.25;4939914;28;66254;-38
2023/12/31 00:23:43;;;;;;;21.80;15.32;;;;;;;30.13;59.63;101150.06;4945731;28;68899;-38
2023/12/31 00:26:14;;;;;;;30.40;17.40;;;;;;;30.00;59.06;101137.38;4976786;28;65517;-39
2023/12/31 00:28:44;;;;;;;37.55;17.90;;;;;;;30.09;59.85;101146.09;4963762;28;69626;-38
2023/12/31 00:31:15;;;;;;;30.95;18.15;;;;;;;30.15;63.60;101158.81;4956127;28;66135;-38
2023/12/31 00:33:45;;;;;;;27.38;18.20;;;;;;;30.16;61.58;101155.91;4946918;28;68870;-38
2023/12/31 00:36:16;;;;;;;26.15;19.63;;;;;;;30.15;62.65;101148.84;4945583;28;66526;-38
2023/12/31 00:38:48;;;;;;;29.73;19.70;;;;;;;30.28;61.45;101170.50;4976766;28;70343;-38
2023/12/31 00:41:19;;;;;;;35.30;20.35;;;;;;;30.26;64.52;101178.00;4955399;28;65980;-39
2023/12/31 00:43:49;;;;;;;35.95;21.92;;;;;;;30.26;65.76;101183.41;4956320;28;70575;-38
2023/12/31 00:46:20;;;;;;;34.10;22.42;;;;;;;30.38;62.78;101186.31;4967043;28;66819;-39
2023/12/31 00:48:50;;;;;;;40.70;23.02;;;;;;;30.34;64.46;101189.63;4906825;28;68434;-39
2023/12/31 00:51:21;;;;;;;40.45;21.50;;;;;;;30.40;63.73;101199.66;4953890;28;65831;-40
2023/12/31 00:53:51;;;;;;;40.03;22.65;;;;;;;30.39;65.82;101197.97;4949362;28;69907;-39
2023/12/31 00:56:22;;;;;;;41.20;23.27;;;;;;;30.43;66.12;101199.22;4959843;28;66390;-40
2023/12/31 00:58:52;;;;;;;36.17;22.55;;;;;;;30.27;64.62;101176.94;4943004;28;70142;-40
2023/12/31 01:01:22;;;;;;;36.33;23.55;;;;;;;30.40;64.53;101183.41;4955044;28;66106;-39
2023/12/31 01:03:53;;;;;;;33.97;22.83;;;;;;;30.53;64.62;101198.78;4948104;28;70126;-39
2023/12/31 01:06:23;;;;;;;41.03;24.20;;;;;;;30.50;66.20;101208.16;4966820;28;65975;-39
2023/12/31 01:08:56;;;;;;;35.17;23.98;;;;;;;30.48;66.04;101210.25;4969646;28;69892;-39
2023/12/31 01:11:27;;;;;;;38.45;23.73;;;;;;;30.50;65.46;101216.28;4944862;28;66649;-39
2023/12/31 01:13:57;;;;;;;31.48;23.75;;;;;;;30.48;67.43;101211.09;4979602;28;70315;-39
2023/12/31 01:16:27;;;;;;;32.38;22.92;;;;;;;30.54;65.47;101217.53;4953216;28;65304;-39
2023/12/31 01:18:58;;;;;;;31.00;23.27;;;;;;;30.51;65.25;101217.97;4950354;28;70660;-38
2023/12/31 01:21:29;;;;;;;36.03;23.07;;;;;;;30.48;67.74;101218.38;4970268;28;66886;-39
2023/12/31 01:23:59;;;;;;;38.28;23.95;;;;;;;30.57;66.20;101225.22;4976186;28;70700;-40
2023/12/31 01:26:30;;;;;;;38.72;24.30;;;;;;;30.55;66.57;101224.59;4972052;28;66682;-39
2023/12/31 01:29:00;;;;;;;42.03;25.20;;;;;;;30.61;66.43;101228.34;4955325;28;70417;-39
2023/12/31 01:31:30;;;;;;;33.38;22.85;;;;;;;30.60;69.50;101238.34;4944291;28;65198;-39
2023/12/31 01:34:00;;;;;;;35.00;24.23;;;;;;;30.63;67.42;101226.25;4970492;28;70228;-39
2023/12/31 01:36:30;;;;;;;36.42;22.88;;;;;;;30.64;66.76;101226.03;4959154;28;66010;-39
2023/12/31 01:39:01;;;;;;;48.58;29.33;;;;;;;30.56;71.30;101220.00;4954423;28;69141;-40
2023/12/31 01:41:31;;;;;;;50.53;27.70;;;;;;;30.52;67.02;101203.38;4936035;28;66514;-37
2023/12/31 01:44:03;;;;;;;43.45;27.48;;;;;;;30.68;68.54;101229.19;4937427;28;70139;-37
2023/12/31 01:46:36;;;;;;;51.08;27.85;;;;;;;29.77;70.52;101087.25;4974760;28;66180;-37
2023/12/31 01:49:09;;;;;;;50.53;26.73;;;;;;;30.40;69.38;101167.16;4956836;28;70349;-38
2023/12/31 01:51:40;;;;;;;54.20;27.23;;;;;;;30.80;66.96;101240.22;4972168;28;66156;-40
2023/12/31 01:54:11;;;;;;;60.05;28.70;;;;;;;30.75;68.94;101223.75;4943870;28;70196;-39
2023/12/31 01:56:43;;;;;;;57.80;29.35;;;;;;;30.82;68.31;101227.31;4958356;28;66543;-39
2023/12/31 01:59:14;;;;;;;50.03;27.02;;;;;;;30.79;68.61;101214.16;4969158;28;71145;-43
2023/12/31 02:01:45;;;;;;;52.65;27.50;;;;;;;30.81;69.46;101222.91;4953837;28;68178;-39
2023/12/31 02:04:33;;;;;;;59.92;27.02;;;;;;;30.84;70.12;101234.19;4947592;28;70672;-40
2023/12/31 02:07:04;;;;;;;59.78;28.73;;;;;;;30.87;69.11;101228.34;4947413;28;65435;-41
2023/12/31 02:09:34;;;;;;;49.92;28.83;;;;;;;30.92;68.04;101222.25;4947448;28;70484;-40
2023/12/31 02:12:06;;;;;;;38.80;26.27;;;;;;;30.97;67.07;101217.03;4961341;28;67200;-40
2023/12/31 02:14:36;;;;;;;35.10;23.52;;;;;;;30.71;66.40;101161.88;4951825;28;70009;-40
2023/12/31 02:17:07;;;;;;;36.00;23.75;;;;;;;31.10;65.75;101217.00;4978327;28;66640;-39
2023/12/31 02:19:38;;;;;;;47.50;25.10;;;;;;;31.13;65.73;101216.56;4949571;28;70582;-40
2023/12/31 02:22:09;;;;;;;41.47;24.92;;;;;;;31.15;65.72;101219.91;4963252;28;66645;-40
2023/12/31 02:24:50;;;;;;;37.95;25.98;;;;;;;31.11;65.63;101207.81;4978673;28;70061;-40
2023/12/31 02:27:21;;;;;;;47.30;26.52;;;;;;;31.22;65.47;101213.63;4961165;28;65961;-39
2023/12/31 02:29:51;;;;;;;36.90;24.33;;;;;;;31.21;65.59;101212.81;4946472;28;70221;-40
2023/12/31 02:32:21;;;;;;;39.65;26.98;;;;;;;31.12;65.67;101186.97;4967299;28;66402;-38
2023/12/31 02:34:52;;;;;;;37.80;26.02;;;;;;;31.30;65.63;101210.69;4977624;28;69990;-38
2023/12/31 02:37:22;;;;;;;38.50;27.08;;;;;;;31.23;65.77;101199.03;4963571;28;65880;-40
2023/12/31 02:39:53;;;;;;;50.90;30.73;;;;;;;31.06;70.00;101190.53;4928978;28;69944;-40
2023/12/31 02:42:23;;;;;;;61.50;33.20;;;;;;;31.13;70.65;101203.03;4971738;28;66671;-39
2023/12/31 02:44:53;;;;;;;57.42;31.40;;;;;;;31.08;70.52;101197.41;4955874;28;69937;-40
2023/12/31 02:47:23;;;;;;;45.50;29.00;;;;;;;31.05;72.76;101197.84;4959860;28;66665;-39
2023/12/31 02:49:56;;;;;;;43.97;28.35;;;;;;;31.07;70.03;101201.19;4951878;28;69258;-39
2023/12/31 02:52:27;;;;;;;53.88;29.52;;;;;;;30.94;73.32;101193.09;4930987;28;65643;-40
2023/12/31 02:54:57;;;;;;;45.63;29.58;;;;;;;31.00;72.90;101200.34;4962264;28;70179;-39
2023/12/31 02:57:27;;;;;;;41.60;28.88;;;;;;;30.99;73.50;101204.13;4959545;28;66388;-38
2023/12/31 02:59:58;;;;;;;42.38;28.58;;;;;;;31.00;74.42;101194.94;4929895;28;69428;-38
2023/12/31 03:02:28;;;;;;;42.28;29.27;;;;;;;30.96;71.23;101176.66;4947229;28;65983;-38
2023/12/31 03:04:58;;;;;;;48.75;28.90;;;;;;;30.95;74.95;101164.94;4942860;28;70104;-37
2023/12/31 03:07:29;;;;;;;47.25;28.52;;;;;;;31.08;71.71;101186.56;4963075;28;65576;-39
2023/12/31 03:09:59;;;;;;;45.72;27.98;;;;;;;31.05;73.66;101178.88;4961891;28;70128;-37
2023/12/31 03:12:30;;;;;;;45.60;26.03;;;;;;;31.04;71.65;101168.28;4952026;28;67326;-38
2023/12/31 03:15:01;;;;;;;34.63;23.27;;;;;;;31.06;71.47;101171.56;4965445;28;70078;-40
2023/12/31 03:17:31;;;;;;;29.02;19.52;;;;;;;31.07;70.95;101174.09;4977288;28;65978;-39
2023/12/31 03:20:02;;;;;;;33.45;20.60;;;;;;;31.01;72.62;101163.25;4955172;28;71228;-39
2023/12/31 03:22:33;;;;;;;34.95;18.65;;;;;;;31.09;71.11;101166.59;4957215;28;66408;-40
2023/12/31 03:25:11;;;;;;;27.23;18.60;;;;;;;31.10;70.54;101160.09;4964310;28;70895;-40
2023/12/31 03:27:45;;;;;;;25.52;17.17;;;;;;;31.16;69.70;101156.53;4946872;28;65583;-40
2023/12/31 03:30:15;;;;;;;28.75;18.25;;;;;;;31.23;69.96;101151.09;4958172;28;70283;-40
2023/12/31 03:32:46;;;;;;;23.25;16.30;;;;;;;31.22;71.39;101154.84;4953284;28;66519;-38
2023/12/31 03:35:17;;;;;;;23.63;16.77;;;;;;;31.24;70.17;101146.50;4948796;28;70769;-41
2023/12/31 03:37:49;;;;;;;27.92;15.95;;;;;;;31.27;71.82;101146.06;4948417;28;65203;-42
2023/12/31 03:40:23;;;;;;;29.13;17.33;;;;;;;31.25;70.87;101131.91;4951835;28;70293;-40
2023/12/31 03:42:54;;;;;;;26.90;17.70;;;;;;;31.30;69.35;101129.38;4966991;28;66216;-40
2023/12/31 03:45:24;;;;;;;21.83;17.27;;;;;;;31.30;71.42;101126.66;4961976;28;70134;-41
2023/12/31 03:47:54;;;;;;;20.70;16.83;;;;;;;31.38;70.39;101131.84;4935851;28;66819;-43
2023/12/31 03:50:25;;;;;;;29.23;17.90;;;;;;;31.38;69.63;101116.41;4967373;28;70454;-40
2023/12/31 03:52:57;;;;;;;26.33;18.20;;;;;;;31.42;71.19;101116.81;4957262;28;65279;-40
2023/12/31 03:55:28;;;;;;;33.47;17.85;;;;;;;31.47;69.50;101103.44;4972024;28;69529;-39
2023/12/31 03:57:58;;;;;;;25.58;17.20;;;;;;;31.47;70.19;101111.56;4965418;28;66277;-40
2023/12/31 04:00:28;;;;;;;21.88;16.15;;;;;;;31.47;69.79;101103.44;4951887;28;70086;-41
2023/12/31 04:02:59;;;;;;;24.80;18.33;;;;;;;31.11;69.51;101045.25;4970022;28;65934;-41
2023/12/31 04:05:30;;;;;;;23.27;18.27;;;;;;;31.52;69.71;101100.88;4956037;28;71130;-41
2023/12/31 04:08:01;;;;;;;25.98;18.65;;;;;;;31.54;69.31;101104.22;4969584;28;65619;-40
2023/12/31 04:10:32;;;;;;;24.13;18.77;;;;;;;31.43;70.48;101066.97;4956156;28;70018;-39
2023/12/31 04:13:05;;;;;;;23.95;18.17;;;;;;;31.64;69.14;101083.91;4974145;28;66521;-41
2023/12/31 04:15:35;;;;;;;30.23;18.50;;;;;;;31.68;69.68;101079.69;4977980;28;69843;-39
2023/12/31 04:18:06;;;;;;;29.98;19.35;;;;;;;31.72;69.22;101078.22;4949164;28;65683;-40
2023/12/31 04:20:36;;;;;;;24.95;18.25;;;;;;;31.71;68.76;101071.13;4962797;28;70076;-40
2023/12/31 04:23:08;;;;;;;24.60;18.42;;;;;;;31.75;68.59;101066.91;4946642;28;64999;-39
2023/12/31 04:25:38;;;;;;;29.30;18.98;;;;;;;31.73;69.18;101064.44;4966978;28;69458;-40
2023/12/31 04:28:09;;;;;;;28.13;17.48;;;;;;;31.76;68.74;101063.16;4966075;28;66295;-39
2023/12/31 04:30:40;;;;;;;20.58;17.88;;;;;;;31.79;69.55;101052.69;4976865;28;70448;-39
2023/12/31 04:33:11;;;;;;;33.83;18.77;;;;;;;31.86;68.15;101063.47;4943802;28;66000;-40
2023/12/31 04:35:41;;;;;;;27.60;17.42;;;;;;;31.89;67.47;101060.31;4954105;28;70651;-40
2023/12/31 04:38:20;;;;;;;32.55;17.77;;;;;;;31.91;68.24;101055.53;4948007;28;66169;-40
2023/12/31 04:40:50;;;;;;;22.98;17.70;;;;;;;31.91;69.06;101049.25;4975439;28;70283;-39
2023/12/31 04:43:21;;;;;;;28.23;17.55;;;;;;;31.89;68.78;101033.19;4956024;28;66590;-40
2023/12/31 04:45:51;;;;;;;25.67;18.23;;;;;;;31.95;70.87;101037.75;4949940;28;70695;-41
2023/12/31 04:48:21;;;;;;;57.65;17.80;;;;;;;32.08;69.16;101041.41;4947750;28;65473;-39
2023/12/31 04:50:52;;;;;;;21.85;17.38;;;;;;;31.96;69.76;101025.84;4946617;28;69335;-41
2023/12/31 04:53:22;;;;;;;25.20;18.67;;;;;;;32.01;68.26;101025.16;4972120;28;67147;-39
2023/12/31 04:55:53;;;;;;;26.43;19.13;;;;;;;32.14;67.84;101033.16;4978940;28;70292;-38
2023/12/31 04:58:23;;;;;;;29.73;18.58;;;;;;;32.10;68.95;101033.88;4973140;28;65541;-40
2023/12/31 05:00:54;;;;;;;26.52;16.98;;;;;;;32.12;68.30;101032.56;4965580;28;70809;-38
2023/12/31 05:03:25;;;;;;;19.23;15.63;;;;;;;32.08;68.61;101025.13;4970733;28;65579;-39
2023/12/31 05:05:55;;;;;;;17.60;15.00;;;;;;;32.03;68.15;101015.75;4960684;28;69635;-40
2023/12/31 05:08:25;;;;;;;16.63;13.20;;;;;;;31.97;69.17;101019.38;4950992;28;66846;-39
2023/12/31 05:10:56;;;;;;;15.82;14.07;;;;;;;32.00;68.27;101005.34;4975807;28;69910;-40
2023/12/31 05:13:26;;;;;;;16.45;13.95;;;;;;;32.01;68.48;101012.47;4975843;28;66071;-40
2023/12/31 05:15:57;;;;;;;14.23;12.70;;;;;;;31.94;69.22;101008.97;4975110;28;70830;-39
2023/12/31 05:18:27;;;;;;;15.35;13.00;;;;;;;31.99;68.43;101009.13;4965027;28;66428;-40
2023/12/31 05:20:59;;;;;;;16.15;12.88;;;;;;;32.00;68.29;101005.34;4971346;28;69344;-39
2023/12/31 05:23:32;;;;;;;16.70;12.82;;;;;;;31.93;68.90;100999.19;4978891;28;66240;-40
2023/12/31 05:26:03;;;;;;;14.40;12.98;;;;;;;31.94;68.50;100989.16;4973612;28;69791;-39
2023/12/31 05:28:35;;;;;;;14.83;12.87;;;;;;;31.92;69.42;100986.66;4963867;28;66274;-39
2023/12/31 05:31:05;;;;;;;14.82;13.35;;;;;;;31.86;69.44;100973.97;4964469;28;70155;-39
2023/12/31 05:33:36;;;;;;;14.52;13.30;;;;;;;32.02;68.56;100984.25;4953024;28;65984;-39
2023/12/31 05:36:06;;;;;;;14.13;12.50;;;;;;;31.93;68.88;100969.34;4969087;28;69735;-39
2023/12/31 05:38:37;;;;;;;13.38;12.23;;;;;;;32.01;68.90;100968.19;4964357;28;66803;-39
2023/12/31 05:41:07;;;;;;;16.27;13.93;;;;;;;32.01;68.89;100963.63;4955183;28;69800;-40
2023/12/31 05:43:37;;;;;;;14.98;13.50;;;;;;;32.01;68.79;100960.91;4964560;28;66112;-39
2023/12/31 05:46:08;;;;;;;14.82;12.88;;;;;;;32.04;68.28;100946.88;4963303;28;69762;-39
2023/12/31 05:48:42;;;;;;;15.00;13.60;;;;;;;32.09;69.54;100948.88;4972878;28;66243;-40
2023/12/31 05:51:12;;;;;;;16.27;12.82;;;;;;;32.02;67.85;100940.84;4952731;28;69757;-40
2023/12/31 05:53:42;;;;;;;14.07;12.30;;;;;;;31.92;66.65;100945.97;4953243;28;66017;-37
2023/12/31 05:56:13;;;;;;;16.15;12.60;;;;;;;31.70;65.79;100925.72;4944531;28;69642;-39
2023/12/31 05:58:46;;;;;;;12.18;11.27;;;;;;;31.32;64.74;100872.50;4959685;28;65642;-39
2023/12/31 06:01:18;;;;;;;12.25;11.13;;;;;;;31.49;62.66;100933.25;4977564;28;68015;-41
2023/12/31 06:03:49;;;;;;;13.50;11.50;;;;;;;31.43;62.64;100938.75;4971362;28;66406;-39
2023/12/31 06:06:20;;;;;;;18.45;11.32;;;;;;;31.33;61.80;100928.34;4960343;28;70267;-40
2023/12/31 06:08:51;;;;;;;11.95;10.82;;;;;;;31.27;61.19;100934.66;4975556;28;65099;-40
2023/12/31 06:11:21;;;;;;;12.43;11.15;;;;;;;31.32;63.08;100922.09;4981552;28;69164;-40
2023/12/31 06:13:51;;;;;;;11.23;10.00;;;;;;;31.24;60.88;100918.84;4935756;28;66066;-40
2023/12/31 06:16:21;;;;;;;19.63;10.57;;;;;;;31.09;61.56;100906.47;4970079;28;70277;-41
2023/12/31 06:18:52;;;;;;;11.75;10.75;;;;;;;31.12;60.73;100899.75;4971615;28;66367;-40
2023/12/31 06:21:23;;;;;;;15.00;9.73;;;;;;;30.97;59.69;100900.09;4980180;28;70433;-42
2023/12/31 06:23:55;;;;;;;11.90;10.80;;;;;;;30.92;58.76;100889.94;4966058;28;66036;-38
2023/12/31 06:26:26;;;;;;;10.38;9.35;;;;;;;30.88;58.25;100893.31;4955096;28;70083;-38
2023/12/31 06:28:56;;;;;;;24.60;9.77;;;;;;;30.90;59.71;100880.38;4943965;28;66851;-37
2023/12/31 06:31:26;;;;;;;18.98;10.05;;;;;;;30.91;59.35;100882.03;4967289;28;69954;-37
2023/12/31 06:33:57;;;;;;;15.02;9.52;;;;;;;30.90;58.13;100874.97;4961478;28;66455;-38
2023/12/31 06:36:27;;;;;;;14.10;8.65;;;;;;;30.88;59.37;100869.75;4958672;28;70467;-39
2023/12/31 06:38:57;;;;;;;19.45;9.30;;;;;;;30.73;56.50;100858.41;4955904;28;65663;-37
2023/12/31 06:41:28;;;;;;;10.45;9.52;;;;;;;30.85;58.18;100872.91;4973483;28;69627;-39
2023/12/31 06:43:59;;;;;;;15.73;8.90;;;;;;;30.84;58.23;100871.25;4956646;28;66424;-38
2023/12/31 06:46:29;;;;;;;11.37;9.17;;;;;;;30.85;58.23;100866.66;4971037;28;69890;-38
2023/12/31 06:48:59;;;;;;;11.77;8.25;;;;;;;30.66;55.54;100847.59;4977038;28;65973;-39
2023/12/31 06:51:30;;;;;;;11.05;8.43;;;;;;;30.72;55.16;100862.13;4964349;28;70452;-40
2023/12/31 06:54:00;;;;;;;10.18;8.10;;;;;;;30.72;55.73;100859.44;4941013;28;64963;-38
2023/12/31 06:56:31;;;;;;;9.00;7.72;;;;;;;30.70;55.01;100854.25;4962198;28;70793;-39
2023/12/31 06:59:02;;;;;;;13.48;8.70;;;;;;;30.76;56.76;100851.69;4977023;28;66496;-38
2023/12/31 07:01:33;;;;;;;9.57;7.53;;;;;;;30.65;55.92;100835.13;4945558;28;70127;-37
2023/12/31 07:04:04;;;;;;;12.65;7.72;;;;;;;30.69;54.52;100841.75;4950403;28;66752;-39
2023/12/31 07:06:35;;;;;;;9.90;8.18;;;;;;;30.64;55.45;100833.44;4963175;28;70250;-39
2023/12/31 07:09:09;;;;;;;9.18;8.20;;;;;;;30.57;54.33;100821.03;4967158;28;66171;-39
2023/12/31 07:11:38;;;;;;;8.63;7.60;;;;;;;30.68;54.63;100839.25;4992999;28;69571;-39
2023/12/31 07:14:09;;;;;;;8.13;7.43;;;;;;;30.60;53.83;100829.53;4962580;28;65349;-38
2023/12/31 07:16:39;;;;;;;8.75;7.65;;;;;;;30.60;52.52;100831.41;4965041;28;70537;-40
2023/12/31 07:19:09;;;;;;;7.88;7.13;;;;;;;30.55;53.52;100829.34;4981380;28;66246;-39
2023/12/31 07:21:39;;;;;;;7.70;7.20;;;;;;;30.53;52.22;100831.44;4968339;28;70428;-40
2023/12/31 07:24:10;;;;;;;9.02;6.82;;;;;;;30.54;53.78;100827.72;4951314;28;65624;-42
2023/12/31 07:26:40;;;;;;;7.65;7.15;;;;;;;30.53;54.30;100820.63;4938507;28;72247;-39
2023/12/31 07:29:11;;;;;;;8.07;7.45;;;;;;;30.54;53.08;100819.59;4975140;28;66846;-38
2023/12/31 07:31:42;;;;;;;7.78;7.18;;;;;;;30.53;54.31;100809.78;4933221;28;70581;-37
2023/12/31 07:34:12;;;;;;;7.45;6.95;;;;;;;30.54;52.56;100814.16;4977000;28;66814;-41
2023/12/31 07:36:44;;;;;;;8.13;7.63;;;;;;;30.49;53.38;100811.28;4931346;28;70376;-40
2023/12/31 07:39:15;;;;;;;7.53;6.95;;;;;;;30.45;52.37;100796.53;4956598;28;65060;-37
2023/12/31 07:41:47;;;;;;;7.80;7.30;;;;;;;30.38;52.03;100795.75;4963743;28;70224;-40
2023/12/31 07:44:22;;;;;;;7.55;6.75;;;;;;;30.50;53.49;100804.81;4967848;28;66639;-39
2023/12/31 07:46:52;;;;;;;7.53;7.03;;;;;;;30.45;52.28;100799.22;4972335;28;70206;-38
2023/12/31 07:49:23;;;;;;;7.38;6.97;;;;;;;30.49;52.57;100808.59;4954580;28;66128;-38
2023/12/31 07:51:54;;;;;;;8.75;7.70;;;;;;;30.47;52.45;100802.56;4953946;28;70100;-38
2023/12/31 07:54:25;;;;;;;8.43;7.72;;;;;;;30.45;52.08;100801.94;4965916;28;67085;-39
2023/12/31 07:56:56;;;;;;;8.13;7.43;;;;;;;30.45;53.46;100789.25;4949151;28;68809;-39
2023/12/31 07:59:27;;;;;;;7.93;7.40;;;;;;;30.49;51.98;100795.88;4965820;28;65214;-40
2023/12/31 08:01:59;;;;;;;7.03;6.53;;;;;;;30.55;53.72;100793.34;4971462;28;70941;-40
2023/12/31 08:04:31;;;;;;;8.55;6.72;;;;;;;30.52;52.14;100796.50;4947795;28;66123;-49
2023/12/31 08:07:03;;;;;;;8.18;7.20;;;;;;;30.38;51.26;100779.53;4966599;28;70089;-40
2023/12/31 08:09:33;;;;;;;8.93;7.38;;;;;;;30.41;52.32;100769.06;4937377;28;65677;-37
2023/12/31 08:12:04;;;;;;;7.63;7.03;;;;;;;30.56;53.17;100778.75;4955574;28;69612;-39
2023/12/31 08:14:35;;;;;;;9.32;7.55;;;;;;;30.47;50.94;100779.00;4946648;28;64976;-38
2023/12/31 08:17:05;;;;;;;9.90;6.80;;;;;;;30.46;52.94;100763.00;4957372;28;69628;-50
2023/12/31 08:19:35;;;;;;;8.88;8.15;;;;;;;30.49;54.28;100751.75;4978187;28;65892;-37
2023/12/31 08:22:06;;;;;;;9.57;8.68;;;;;;;30.72;55.93;100776.31;4949918;28;69810;-40
2023/12/31 08:24:37;;;;;;;10.07;8.75;;;;;;;30.76;56.68;100781.28;4969095;28;66263;-39
2023/12/31 08:27:08;;;;;;;15.15;9.85;;;;;;;30.73;59.70;100780.69;4947853;28;69813;-40
2023/12/31 08:29:42;;;;;;;15.10;9.32;;;;;;;30.81;60.72;100768.75;4962540;28;66140;-38
2023/12/31 08:32:13;;;;;;;11.35;8.57;;;;;;;30.94;61.05;100776.75;4940463;28;70010;-37
2023/12/31 08:34:44;;;;;;;15.93;9.25;;;;;;;30.96;60.09;100776.56;4970427;28;66122;-38
2023/12/31 08:37:15;;;;;;;17.88;9.48;;;;;;;31.01;59.29;100768.59;4983086;28;70654;-37
2023/12/31 08:39:46;;;;;;;11.70;8.45;;;;;;;31.03;58.79;100769.16;4953590;28;66211;-38
2023/12/31 08:42:17;;;;;;;16.63;9.73;;;;;;;31.09;58.22;100776.44;4978697;28;69354;-38
2023/12/31 08:44:48;;;;;;;12.75;8.68;;;;;;;31.04;57.65;100778.97;4958270;28;66131;-39
2023/12/31 08:47:34;;;;;;;10.20;9.23;;;;;;;30.97;57.45;100772.78;4967376;28;70242;-38
2023/12/31 08:50:09;;;;;;;12.68;8.93;;;;;;;31.00;57.89;100776.94;4973065;28;66467;-38
2023/12/31 08:52:44;;;;;;;10.55;9.45;;;;;;;30.99;57.61;100754.44;4953402;28;69697;-40
2023/12/31 08:55:16;;;;;;;11.25;9.68;;;;;;;31.05;56.64;100771.66;4952240;28;66668;-39
2023/12/31 08:57:47;;;;;;;14.68;9.90;;;;;;;30.91;57.18;100741.19;4953913;28;69988;-35
2023/12/31 09:00:18;;;;;;;10.48;9.07;;;;;;;30.98;56.17;100763.63;4978162;28;66513;-37
2023/12/31 09:02:48;;;;;;;19.15;10.10;;;;;;;31.05;57.49;100767.06;4974740;28;70017;-36
2023/12/31 09:05:19;;;;;;;19.65;9.15;;;;;;;31.01;57.78;100763.19;4970189;28;64658;-36
2023/12/31 09:07:49;;;;;;;10.35;9.32;;;;;;;31.10;57.21;100783.50;4973927;28;69960;-37
2023/12/31 09:10:20;;;;;;;12.32;9.70;;;;;;;31.11;57.54;100782.44;4974903;28;66086;-37
2023/12/31 09:12:50;;;;;;;12.70;10.13;;;;;;;31.13;56.94;100780.34;4958830;28;69911;-38
2023/12/31 09:15:21;;;;;;;13.43;9.75;;;;;;;31.11;57.12;100762.63;4950156;28;66285;-37
2023/12/31 09:17:51;;;;;;;17.15;9.38;;;;;;;31.20;57.54;100776.72;4943923;28;69372;-36
2023/12/31 09:20:22;;;;;;;13.45;9.00;;;;;;;31.09;57.55;100753.91;4977313;28;65961;-37
2023/12/31 09:22:53;;;;;;;19.08;9.55;;;;;;;31.15;57.09;100772.81;4969400;28;69227;-39
2023/12/31 09:25:24;;;;;;;15.98;10.10;;;;;;;31.19;58.88;100780.50;4933970;28;67278;-37
2023/12/31 09:27:55;;;;;;;14.37;9.93;;;;;;;31.17;58.71;100772.56;4942552;28;68578;-38
2023/12/31 09:30:26;;;;;;;14.05;9.93;;;;;;;31.21;58.67;100790.06;4970499;28;66288;-37
2023/12/31 09:32:58;;;;;;;18.08;11.80;;;;;;;31.31;60.55;100792.22;4957394;28;69539;-36
2023/12/31 09:35:28;;;;;;;;;;;;;;;31.37;68.19;100804.91;4955076;28;65303;-38
2023/12/31 09:37:59;;;;;;;25.63;18.90;;;;;;;31.73;63.47;100808.66;4967788;28;70813;-36
2023/12/31 09:40:29;;;;;;;24.33;19.60;;;;;;;31.85;65.81;100812.28;4953143;28;66022;-38
2023/12/31 09:43:03;;;;;;;27.77;19.42;;;;;;;31.98;68.15;100814.00;4977643;28;70540;-35
2023/12/31 09:45:34;;;;;;;25.60;17.35;;;;;;;32.11;64.85;100821.13;4973979;28;65471;-38
2023/12/31 09:48:05;;;;;;;21.88;15.95;;;;;;;32.12;66.41;100820.06;4983003;28;70214;-36
2023/12/31 09:50:36;;;;;;;20.55;14.25;;;;;;;32.20;68.39;100836.03;4948314;28;66392;-37
2023/12/31 09:53:08;;;;;;;18.70;12.85;;;;;;;32.31;66.85;100848.81;4974484;28;69092;-37
2023/12/31 09:55:39;;;;;;;19.30;12.48;;;;;;;32.35;66.29;100847.31;4958688;28;66332;-39
2023/12/31 09:58:11;;;;;;;17.38;12.85;;;;;;;32.36;69.26;100857.09;4939181;28;70012;-37
2023/12/31 10:00:42;;;;;;;18.80;13.38;;;;;;;32.41;67.12;100864.56;4969310;28;65655;-38
2023/12/31 10:03:13;;;;;;;13.52;11.98;;;;;;;32.41;67.05;100865.38;4944260;28;70151;-40
2023/12/31 10:05:47;;;;;;;12.70;11.63;;;;;;;32.51;69.26;100896.59;4968528;28;66212;-39
2023/12/31 10:08:18;;;;;;;23.85;11.93;;;;;;;32.49;67.59;100878.66;4964581;28;70168;-40
2023/12/31 10:10:51;;;;;;;13.00;11.90;;;;;;;32.65;66.87;100889.91;4964910;28;66001;-42
2023/12/31 10:13:21;;;;;;;12.43;10.77;;;;;;;32.75;65.82;100876.59;4970502;28;70031;-41
2023/12/31 10:15:52;;;;;;;15.90;10.75;;;;;;;32.90;65.04;100890.56;4969899;28;65265;-41
2023/12/31 10:18:25;;;;;;;13.15;10.55;;;;;;;32.93;65.73;100890.09;4978574;28;69987;-41
2023/12/31 10:20:56;;;;;;;11.95;10.77;;;;;;;33.02;64.75;100897.94;4977393;28;66889;-40
2023/12/31 10:23:27;;;;;;;15.03;10.00;;;;;;;33.08;64.86;100913.31;4948465;28;70999;-41
2023/12/31 10:25:58;;;;;;;12.50;10.40;;;;;;;33.10;64.72;100903.03;4949465;28;65884;-42
2023/12/31 10:28:28;;;;;;;13.05;10.13;;;;;;;33.10;64.87;100889.44;4946895;28;68720;-41
2023/12/31 10:30:59;;;;;;;16.42;11.30;;;;;;;33.20;64.95;100895.09;4964512;28;66215;-41
2023/12/31 10:33:29;;;;;;;12.05;10.85;;;;;;;33.22;64.91;100903.84;4946670;28;70527;-39
2023/12/31 10:36:10;;;;;;;12.55;10.82;;;;;;;32.83;66.65;100835.50;4965756;28;66227;-40
2023/12/31 10:38:47;;;;;;;14.50;10.40;;;;;;;33.22;65.88;100890.25;4961367;28;70163;-39
2023/12/31 10:41:21;;;;;;;13.10;11.15;;;;;;;33.13;65.89;100868.03;4951209;28;65490;-41
2023/12/31 10:43:53;;;;;;;11.77;10.10;;;;;;;33.24;65.30;100880.00;4952133;28;70237;-42
2023/12/31 10:46:28;;;;;;;14.55;10.52;;;;;;;33.17;65.40;100862.13;4944725;28;65231;-41
2023/12/31 10:49:02;;;;;;;15.73;10.77;;;;;;;33.23;65.72;100864.72;4950490;28;69432;-40
2023/12/31 10:51:39;;;;;;;15.13;10.93;;;;;;;33.23;65.59;100856.56;4960623;28;66590;-42
2023/12/31 10:54:15;;;;;;;15.50;10.90;;;;;;;32.87;65.57;100787.78;4953803;28;69572;-40
2023/12/31 10:56:49;;;;;;;12.60;11.20;;;;;;;33.13;65.43;100835.44;4967755;28;66308;-42
2023/12/31 10:59:20;;;;;;;13.65;10.77;;;;;;;33.05;65.66;100826.81;4948154;28;70313;-40
2023/12/31 11:01:52;;;;;;;10.80;9.77;;;;;;;33.19;65.50;100860.00;4962748;28;66461;-40
2023/12/31 11:04:26;;;;;;;10.65;9.40;;;;;;;33.05;66.03;100843.94;4957173;28;69672;-42
2023/12/31 11:07:03;;;;;;;10.05;9.15;;;;;;;33.15;65.49;100865.06;4952141;28;65694;-41
2023/12/31 11:09:35;;;;;;;11.48;9.35;;;;;;;33.13;65.93;100867.22;4945708;28;68937;-42
2023/12/31 11:12:08;;;;;;;9.85;8.88;;;;;;;32.86;70.45;100862.19;4952372;28;67384;-41
2023/12/31 11:15:04;;;;;;;15.27;10.80;;;;;;;32.51;75.39;100881.13;4931531;28;70050;-37
2023/12/31 11:17:58;;;;;;;17.17;12.05;;;;;;;32.65;71.08;100885.31;4933107;28;65740;-40
2023/12/31 11:20:54;;;;;;;10.75;9.85;;;;;;;32.70;70.32;100890.84;4954687;28;69994;-39
2023/12/31 11:23:35;;;;;;;11.38;9.57;;;;;;;32.32;69.35;100819.78;4961877;28;65862;-39
2023/12/31 11:26:07;;;;;;;12.20;10.23;;;;;;;32.73;67.95;100878.72;4974970;28;70393;-38
2023/12/31 11:28:37;;;;;;;12.07;10.40;;;;;;;32.82;68.13;100899.06;4965982;28;66012;-39
2023/12/31 11:31:10;;;;;;;;;;;;;;;32.37;75.77;100896.75;4966909;28;70400;-39